Time;durP1;ratioP1;P1;durP2;ratioP2;P2;SDS_P1;SDS_P2;PMS_P1;PMS_P2;Temp;Humidity;BMP_temperature;BMP_pressure;BME280_temperature;BME280_humidity;BME280_pressure;Samples;Min_cycle;Max_cycle;Signal;HPM_P1;HPM_P2
2021/07/29 00:00:58;;;;;;;4.57;3.43;;;17.60;99.90;;;;;;5050264;28;20446;-71
2021/07/29 00:03:44;;;;;;;5.10;3.27;;;17.50;99.90;;;;;;5047916;28;20453;-72
2021/07/29 00:06:30;;;;;;;3.93;2.60;;;17.50;99.90;;;;;;5062734;28;21055;-72
2021/07/29 00:09:16;;;;;;;5.10;3.30;;;17.50;99.90;;;;;;5060049;28;20540;-71
2021/07/29 00:12:03;;;;;;;4.93;3.40;;;17.40;99.90;;;;;;5044520;28;20442;-72
2021/07/29 00:14:51;;;;;;;4.73;3.27;;;17.30;99.90;;;;;;5046566;28;20473;-72
2021/07/29 00:20:41;;;;;;;6.20;3.10;;;17.30;99.90;;;;;;5061941;28;20996;-72
2021/07/29 00:23:27;;;;;;;8.30;3.03;;;17.20;99.90;;;;;;5063733;28;20442;-73
2021/07/29 00:26:12;;;;;;;6.70;2.83;;;17.20;99.90;;;;;;5059854;28;20835;-73
2021/07/29 00:29:01;;;;;;;5.20;3.50;;;17.30;99.90;;;;;;5055321;28;20477;-73
2021/07/29 00:31:46;;;;;;;5.07;3.20;;;17.30;99.90;;;;;;5059156;28;20420;-74
2021/07/29 00:34:32;;;;;;;5.57;3.60;;;17.20;99.90;;;;;;5039622;28;20471;-72
2021/07/29 00:37:18;;;;;;;6.80;3.60;;;17.10;99.90;;;;;;5052852;28;20962;-72
2021/07/29 00:40:05;;;;;;;5.27;3.03;;;17.00;99.90;;;;;;5047398;28;20983;-71
2021/07/29 00:42:50;;;;;;;7.00;3.40;;;17.10;99.90;;;;;;5050764;28;20424;-71
2021/07/29 00:45:37;;;;;;;4.80;2.73;;;17.00;99.90;;;;;;5049797;28;20547;-71
2021/07/29 00:48:23;;;;;;;4.30;3.00;;;16.90;99.90;;;;;;5059988;28;20474;-72
2021/07/29 00:51:09;;;;;;;4.60;3.30;;;16.90;99.90;;;;;;5058866;28;20449;-72
2021/07/29 00:53:56;;;;;;;16.73;4.07;;;16.90;99.90;;;;;;5044946;28;20449;-71
2021/07/29 00:56:46;;;;;;;11.40;3.60;;;16.90;99.90;;;;;;5037780;28;20454;-72
2021/07/29 00:59:32;;;;;;;3.70;3.00;;;16.90;99.90;;;;;;5050962;28;20438;-71
2021/07/29 01:02:20;;;;;;;7.10;3.30;;;16.80;99.90;;;;;;5053512;28;20457;-71
2021/07/29 01:05:07;;;;;;;5.93;3.37;;;16.60;99.90;;;;;;5057444;28;20602;-71
2021/07/29 01:07:53;;;;;;;5.93;3.40;;;16.70;99.90;;;;;;5053774;28;20493;-71
2021/07/29 01:10:39;;;;;;;7.40;3.30;;;16.70;99.90;;;;;;5050358;28;20450;-72
2021/07/29 01:13:25;;;;;;;5.33;3.37;;;16.70;99.90;;;;;;5056076;28;20392;-72
2021/07/29 01:16:11;;;;;;;7.90;3.50;;;16.70;99.90;;;;;;5040039;28;20546;-72
2021/07/29 01:18:58;;;;;;;5.77;3.67;;;16.60;99.90;;;;;;5043771;28;20416;-73
2021/07/29 01:21:45;;;;;;;5.23;3.60;;;16.60;99.90;;;;;;5060942;28;20524;-73
2021/07/29 01:24:31;;;;;;;9.70;3.60;;;16.60;99.90;;;;;;5062309;28;20432;-74
2021/07/29 01:27:19;;;;;;;5.77;3.73;;;16.50;99.90;;;;;;5042846;28;20466;-74
2021/07/29 01:30:06;;;;;;;6.73;3.50;;;16.40;99.90;;;;;;5052172;28;20601;-74
2021/07/29 01:32:51;;;;;;;3.90;3.20;;;16.40;99.90;;;;;;5042301;28;20589;-74
2021/07/29 01:35:37;;;;;;;8.07;3.87;;;16.30;99.90;;;;;;5042701;28;20445;-74
2021/07/29 01:38:24;;;;;;;8.13;3.63;;;16.30;99.90;;;;;;5057167;28;20424;-75
2021/07/29 01:41:10;;;;;;;5.00;3.87;;;16.20;99.90;;;;;;5054776;28;20472;-74
2021/07/29 01:43:56;;;;;;;5.50;4.00;;;16.20;99.90;;;;;;5053278;28;20432;-74
2021/07/29 01:46:41;;;;;;;4.00;3.17;;;16.20;99.90;;;;;;5039595;28;20448;-74
2021/07/29 01:49:27;;;;;;;8.60;3.33;;;16.20;99.90;;;;;;5042863;28;20933;-74
2021/07/29 01:52:12;;;;;;;7.23;3.80;;;16.20;99.90;;;;;;5056293;28;20453;-74
2021/07/29 01:54:59;;;;;;;6.87;3.63;;;16.20;99.90;;;;;;5049413;28;20538;-73
2021/07/29 01:57:45;;;;;;;3.87;3.20;;;16.30;99.90;;;;;;5042150;28;20520;-74
2021/07/29 02:00:31;;;;;;;3.90;3.30;;;16.20;99.90;;;;;;5047131;28;21080;-74
2021/07/29 02:03:17;;;;;;;5.10;3.37;;;16.20;99.90;;;;;;5055308;28;20493;-74
2021/07/29 02:06:03;;;;;;;7.23;3.57;;;16.10;99.90;;;;;;5031108;28;20526;-74
2021/07/29 02:08:48;;;;;;;3.30;2.80;;;16.10;99.90;;;;;;5043889;28;20464;-74
2021/07/29 02:11:37;;;;;;;6.23;3.40;;;16.00;99.90;;;;;;5050937;28;20419;-74
2021/07/29 02:14:24;;;;;;;6.80;3.13;;;15.90;99.90;;;;;;5047435;28;20769;-74
2021/07/29 02:17:09;;;;;;;5.97;3.60;;;15.90;99.90;;;;;;5050186;28;20814;-74
2021/07/29 02:19:55;;;;;;;7.17;4.20;;;15.90;99.90;;;;;;5046102;28;20444;-74
2021/07/29 02:22:41;;;;;;;10.07;3.93;;;15.90;99.90;;;;;;5045225;28;20420;-73
2021/07/29 02:25:26;;;;;;;10.20;4.40;;;15.90;99.90;;;;;;5055528;28;20451;-73
2021/07/29 02:28:13;;;;;;;13.10;3.67;;;15.90;99.90;;;;;;5053131;28;20489;-74
2021/07/29 02:30:59;;;;;;;10.33;3.67;;;15.90;99.90;;;;;;5048254;28;20575;-74
2021/07/29 02:33:45;;;;;;;7.07;3.90;;;15.90;99.90;;;;;;5042866;28;20415;-74
2021/07/29 02:36:30;;;;;;;5.30;4.23;;;15.90;99.90;;;;;;5058027;28;21064;-74
2021/07/29 02:39:16;;;;;;;10.40;4.00;;;16.00;99.90;;;;;;5050327;28;20534;-73
2021/07/29 02:42:01;;;;;;;7.60;4.30;;;16.00;99.90;;;;;;5057533;28;20502;-74
2021/07/29 02:47:21;;;;;;;12.23;4.20;;;16.00;99.90;;;;;;5041891;28;20802;-75
2021/07/29 02:50:08;;;;;;;7.80;5.00;;;16.00;99.90;;;;;;5050852;28;20465;-74
2021/07/29 02:52:54;;;;;;;7.27;4.60;;;16.10;99.90;;;;;;5042569;28;20575;-74
2021/07/29 02:55:39;;;;;;;7.47;4.50;;;16.10;99.90;;;;;;5047573;28;20873;-74
2021/07/29 02:58:25;;;;;;;4.83;3.93;;;16.10;99.90;;;;;;5042135;28;20548;-75
2021/07/29 03:01:11;;;;;;;11.00;4.30;;;16.20;99.90;;;;;;5049038;28;20924;-75
2021/07/29 03:03:58;;;;;;;6.23;3.67;;;16.20;99.90;;;;;;5048842;28;20947;-75
2021/07/29 03:06:44;;;;;;;8.40;4.23;;;16.20;99.90;;;;;;5050022;28;20553;-74
2021/07/29 03:09:30;;;;;;;6.47;4.03;;;16.30;99.90;;;;;;5056227;28;20544;-75
2021/07/29 03:12:15;;;;;;;6.53;3.80;;;16.30;99.90;;;;;;5053583;28;20433;-74
2021/07/29 03:15:01;;;;;;;8.27;4.77;;;16.40;99.90;;;;;;5053118;28;20436;-74
2021/07/29 03:17:47;;;;;;;5.10;4.10;;;16.20;99.90;;;;;;5051815;28;20446;-74
2021/07/29 03:20:34;;;;;;;5.60;4.00;;;16.20;99.90;;;;;;5053409;28;20588;-74
2021/07/29 03:23:19;;;;;;;6.40;4.50;;;16.20;99.90;;;;;;5052744;28;20520;-74
2021/07/29 03:26:06;;;;;;;11.13;5.10;;;16.30;99.90;;;;;;5052291;28;20543;-75
2021/07/29 03:28:51;;;;;;;9.43;4.73;;;16.30;99.90;;;;;;5046726;28;20449;-74
2021/07/29 03:31:37;;;;;;;7.73;4.53;;;16.20;99.90;;;;;;5044519;28;20608;-74
2021/07/29 03:34:22;;;;;;;5.97;4.43;;;16.20;99.90;;;;;;5049763;28;20962;-75
2021/07/29 03:37:09;;;;;;;6.90;4.20;;;16.20;99.90;;;;;;5045832;28;21019;-75
2021/07/29 03:39:55;;;;;;;14.90;4.47;;;16.30;99.90;;;;;;5053338;28;20589;-74
2021/07/29 03:42:41;;;;;;;5.00;4.00;;;16.30;99.90;;;;;;5041856;28;20924;-74
2021/07/29 03:45:26;;;;;;;9.30;4.63;;;16.30;99.90;;;;;;5052726;28;20456;-75
2021/07/29 03:48:12;;;;;;;9.10;3.80;;;16.30;99.90;;;;;;5052750;28;20794;-74
2021/07/29 03:50:58;;;;;;;6.43;4.60;;;16.40;99.90;;;;;;5050899;28;20428;-74
2021/07/29 03:53:45;;;;;;;7.57;3.80;;;16.40;99.90;;;;;;5044631;28;20962;-74
2021/07/29 03:56:31;;;;;;;13.13;4.20;;;16.50;99.90;;;;;;5048210;28;20454;-74
2021/07/29 03:59:17;;;;;;;6.67;4.43;;;16.70;99.90;;;;;;5050022;28;20413;-75
2021/07/29 04:02:08;;;;;;;6.63;4.10;;;16.80;99.90;;;;;;5051420;28;20441;-74
2021/07/29 04:04:53;;;;;;;6.10;3.90;;;17.00;99.90;;;;;;5047063;28;20430;-74
2021/07/29 04:07:38;;;;;;;6.47;4.33;;;17.10;99.90;;;;;;5051721;28;20862;-74
2021/07/29 04:10:26;;;;;;;9.27;4.00;;;17.20;99.90;;;;;;5051529;28;20489;-74
2021/07/29 04:13:11;;;;;;;6.43;4.03;;;17.30;99.90;;;;;;5043762;28;20441;-75
2021/07/29 04:16:00;;;;;;;4.40;3.70;;;17.40;99.90;;;;;;5045516;28;20479;-74
2021/07/29 04:18:46;;;;;;;9.30;3.43;;;17.50;99.90;;;;;;5041127;28;20936;-74
2021/07/29 04:21:32;;;;;;;5.53;4.00;;;17.50;99.90;;;;;;5052459;28;20421;-74
2021/07/29 04:24:18;;;;;;;4.60;3.53;;;17.60;99.90;;;;;;5044241;28;20459;-74
2021/07/29 04:27:06;;;;;;;6.43;3.60;;;17.70;99.90;;;;;;5049552;28;21061;-74
2021/07/29 04:29:52;;;;;;;6.40;3.70;;;17.80;99.90;;;;;;5046457;28;20473;-74
2021/07/29 04:32:38;;;;;;;5.97;3.23;;;17.80;99.90;;;;;;5047531;28;20552;-74
2021/07/29 04:35:24;;;;;;;4.90;3.70;;;17.80;99.90;;;;;;5048590;28;20594;-74
2021/07/29 04:38:10;;;;;;;5.40;4.20;;;17.90;99.90;;;;;;5048016;28;20425;-74
2021/07/29 04:41:02;;;;;;;5.00;4.50;;;17.90;99.90;;;;;;5053376;28;20430;-75
2021/07/29 04:43:49;;;;;;;4.70;3.70;;;17.90;99.90;;;;;;5046189;28;20446;-74
2021/07/29 04:46:35;;;;;;;6.30;3.97;;;17.90;99.90;;;;;;5048491;28;20518;-74
2021/07/29 04:49:22;;;;;;;6.90;3.70;;;18.00;99.90;;;;;;5049675;28;20467;-74
2021/07/29 04:52:08;;;;;;;5.77;4.07;;;17.90;99.90;;;;;;5048740;28;20442;-74
2021/07/29 04:54:53;;;;;;;5.20;3.33;;;18.00;99.90;;;;;;5043318;28;20425;-74
2021/07/29 04:57:39;;;;;;;5.90;3.63;;;18.00;99.90;;;;;;5046645;28;20508;-74
2021/07/29 05:00:29;;;;;;;6.17;4.07;;;18.10;99.90;;;;;;5042992;28;20523;-74
2021/07/29 05:03:14;;;;;;;5.10;4.07;;;18.00;99.90;;;;;;5041740;28;20456;-75
2021/07/29 05:06:01;;;;;;;3.77;3.00;;;18.00;99.90;;;;;;5045433;28;21092;-74
2021/07/29 05:08:47;;;;;;;6.60;3.77;;;18.10;99.90;;;;;;5048531;28;20452;-75
2021/07/29 05:11:33;;;;;;;8.40;3.40;;;18.00;99.90;;;;;;5049256;28;20484;-74
2021/07/29 05:14:18;;;;;;;3.97;2.80;;;18.00;99.90;;;;;;5051789;28;20516;-74
2021/07/29 05:17:05;;;;;;;7.73;4.50;;;18.10;99.90;;;;;;5047561;28;20704;-74
2021/07/29 05:19:50;;;;;;;3.67;2.90;;;18.10;99.90;;;;;;5043384;28;20416;-74
2021/07/29 05:22:36;;;;;;;4.93;3.50;;;18.20;99.90;;;;;;5048814;28;20492;-74
2021/07/29 05:25:25;;;;;;;5.40;3.60;;;18.30;99.90;;;;;;5043055;28;20474;-74
2021/07/29 05:28:10;;;;;;;6.10;3.57;;;18.20;99.90;;;;;;5043438;28;20949;-74
2021/07/29 05:30:56;;;;;;;7.23;3.40;;;18.20;99.90;;;;;;5032685;28;20866;-74
2021/07/29 05:33:43;;;;;;;8.80;4.00;;;18.30;99.90;;;;;;5046117;28;20455;-75
2021/07/29 05:36:29;;;;;;;5.97;3.70;;;18.30;99.90;;;;;;5051807;28;20433;-74
2021/07/29 05:39:14;;;;;;;7.30;3.50;;;18.30;99.90;;;;;;5045925;28;20532;-74
2021/07/29 05:42:01;;;;;;;4.40;3.20;;;18.30;99.90;;;;;;5047672;28;20815;-75
2021/07/29 05:44:47;;;;;;;5.47;3.80;;;18.40;99.90;;;;;;5040791;28;20426;-76
2021/07/29 05:47:33;;;;;;;4.90;3.60;;;18.40;99.90;;;;;;5050027;28;20503;-76
2021/07/29 05:50:21;;;;;;;6.20;3.70;;;18.40;99.90;;;;;;5046332;28;20609;-75
2021/07/29 05:53:07;;;;;;;9.03;3.70;;;18.40;99.90;;;;;;5050720;28;20449;-75
2021/07/29 05:55:54;;;;;;;9.00;3.50;;;18.40;99.90;;;;;;5048377;28;20470;-74
2021/07/29 05:58:41;;;;;;;5.90;3.90;;;18.40;99.90;;;;;;5045071;28;20963;-75
2021/07/29 06:01:26;;;;;;;8.43;4.20;;;18.40;99.90;;;;;;5048502;28;20439;-75
2021/07/29 06:04:12;;;;;;;5.07;3.10;;;18.50;99.90;;;;;;5050608;28;20398;-75
2021/07/29 06:07:00;;;;;;;7.00;4.30;;;18.60;99.90;;;;;;5050461;28;20460;-74
2021/07/29 06:09:46;;;;;;;8.10;3.63;;;18.50;99.90;;;;;;5055101;28;20540;-74
2021/07/29 06:12:31;;;;;;;9.77;4.43;;;18.40;99.90;;;;;;5048472;28;20421;-74
2021/07/29 06:15:17;;;;;;;12.87;3.57;;;18.50;99.90;;;;;;5046891;28;20478;-75
2021/07/29 06:18:03;;;;;;;6.10;3.70;;;18.50;99.90;;;;;;5050527;28;20455;-74
2021/07/29 06:20:48;;;;;;;6.53;3.80;;;18.40;99.90;;;;;;5043703;28;20425;-74
2021/07/29 06:23:35;;;;;;;6.43;3.70;;;18.50;99.90;;;;;;5040733;28;20446;-74
2021/07/29 06:26:21;;;;;;;8.30;3.63;;;18.50;99.90;;;;;;5049433;28;20445;-74
2021/07/29 06:29:07;;;;;;;4.80;3.50;;;18.60;99.90;;;;;;5049319;28;20836;-75
2021/07/29 06:31:53;;;;;;;5.30;3.57;;;18.70;99.90;;;;;;5043914;28;20414;-73
2021/07/29 06:34:39;;;;;;;6.13;3.70;;;18.70;99.90;;;;;;5037064;28;20518;-74
2021/07/29 06:37:25;;;;;;;6.37;3.40;;;18.70;99.90;;;;;;5038302;28;20451;-74
2021/07/29 06:40:14;;;;;;;5.77;4.03;;;18.70;99.90;;;;;;5054136;28;20481;-75
2021/07/29 06:42:59;;;;;;;6.43;4.00;;;18.80;99.90;;;;;;5041649;28;20450;-75
2021/07/29 06:45:45;;;;;;;9.13;4.20;;;18.80;99.90;;;;;;5044753;28;20549;-74
2021/07/29 06:48:31;;;;;;;6.33;3.63;;;18.80;99.90;;;;;;5048225;28;21174;-74
2021/07/29 06:51:17;;;;;;;6.67;3.37;;;18.80;99.90;;;;;;5048055;28;20955;-73
2021/07/29 06:54:04;;;;;;;9.50;3.60;;;18.90;99.90;;;;;;5042042;28;20970;-74
2021/07/29 06:56:50;;;;;;;8.43;3.90;;;18.90;99.90;;;;;;5049483;28;21073;-73
2021/07/29 06:59:36;;;;;;;6.63;3.80;;;18.90;99.90;;;;;;5049746;28;20454;-74
2021/07/29 07:02:22;;;;;;;5.00;3.40;;;19.00;99.90;;;;;;5045441;28;20421;-74
2021/07/29 07:05:08;;;;;;;8.17;4.00;;;18.90;99.90;;;;;;5048529;28;20559;-74
2021/07/29 07:07:54;;;;;;;8.30;4.00;;;19.00;99.90;;;;;;5047522;28;21189;-75
2021/07/29 07:10:40;;;;;;;8.90;4.30;;;19.00;99.90;;;;;;5051098;28;20807;-74
2021/07/29 07:13:27;;;;;;;10.03;3.77;;;19.20;99.90;;;;;;5044885;28;20451;-75
2021/07/29 07:16:13;;;;;;;6.47;3.90;;;19.30;99.90;;;;;;5046333;28;20508;-75
2021/07/29 07:18:59;;;;;;;9.73;3.93;;;19.40;99.90;;;;;;5039101;28;20443;-75
2021/07/29 07:21:45;;;;;;;6.63;3.90;;;19.30;99.90;;;;;;5050499;28;20808;-75
2021/07/29 07:24:33;;;;;;;6.83;3.40;;;19.20;99.90;;;;;;5049960;28;20393;-76
2021/07/29 07:27:18;;;;;;;9.03;4.00;;;19.20;99.90;;;;;;5051148;28;20448;-75
2021/07/29 07:30:06;;;;;;;5.90;4.40;;;19.40;99.90;;;;;;5050865;28;20549;-75
2021/07/29 07:32:52;;;;;;;7.53;3.27;;;19.50;99.90;;;;;;5046361;28;20452;-75
2021/07/29 07:35:38;;;;;;;5.00;3.07;;;19.60;99.90;;;;;;5050061;28;20454;-74
2021/07/29 07:38:23;;;;;;;6.60;3.70;;;19.60;99.90;;;;;;5050777;28;20423;-75
2021/07/29 07:41:10;;;;;;;6.03;4.20;;;19.80;99.90;;;;;;5054494;28;20430;-76
2021/07/29 07:43:56;;;;;;;6.60;3.60;;;19.90;99.90;;;;;;5030749;28;20417;-74
2021/07/29 07:46:43;;;;;;;5.70;3.67;;;20.00;99.90;;;;;;5046890;28;20490;-75
2021/07/29 07:49:29;;;;;;;5.23;3.10;;;19.90;99.90;;;;;;5052695;28;20498;-74
2021/07/29 07:52:15;;;;;;;10.40;3.10;;;20.00;99.90;;;;;;5054163;28;20420;-75
2021/07/29 07:55:00;;;;;;;7.07;3.83;;;19.80;99.90;;;;;;5053689;28;20435;-75
2021/07/29 07:57:46;;;;;;;5.77;3.10;;;19.90;99.90;;;;;;5054008;28;20960;-75
2021/07/29 08:00:32;;;;;;;6.97;3.40;;;20.00;99.90;;;;;;5050277;28;20569;-76
2021/07/29 08:03:19;;;;;;;6.93;3.60;;;20.10;99.90;;;;;;5051546;28;20475;-75
2021/07/29 08:06:05;;;;;;;5.63;3.10;;;20.20;99.90;;;;;;5053661;28;20529;-74
2021/07/29 08:08:50;;;;;;;7.60;2.90;;;20.10;99.90;;;;;;5052881;28;20926;-74
2021/07/29 08:11:36;;;;;;;4.90;3.17;;;20.00;99.90;;;;;;5055018;28;20501;-75
2021/07/29 08:14:21;;;;;;;5.77;3.07;;;20.10;99.90;;;;;;5050948;28;20458;-75
2021/07/29 08:17:07;;;;;;;6.03;2.60;;;20.20;99.90;;;;;;5033804;28;20474;-75
2021/07/29 08:19:54;;;;;;;7.23;2.97;;;20.20;99.90;;;;;;5050516;28;20809;-75
2021/07/29 08:22:40;;;;;;;8.30;3.30;;;20.20;99.90;;;;;;5054038;28;20932;-74
2021/07/29 08:25:25;;;;;;;7.10;3.40;;;20.30;97.40;;;;;;5053096;28;20938;-75
2021/07/29 08:28:13;;;;;;;5.90;3.23;;;20.30;96.30;;;;;;5053793;28;20414;-74
2021/07/29 08:30:58;;;;;;;4.80;2.73;;;20.30;91.40;;;;;;5051087;28;20457;-74
2021/07/29 08:33:44;;;;;;;5.33;3.20;;;20.30;93.00;;;;;;5051109;28;20589;-74
2021/07/29 08:36:31;;;;;;;5.90;3.23;;;20.30;93.30;;;;;;5052896;28;20516;-75
2021/07/29 08:39:16;;;;;;;10.33;3.83;;;20.40;94.10;;;;;;5057221;28;20408;-74
2021/07/29 08:42:02;;;;;;;6.87;3.37;;;20.60;94.40;;;;;;5052404;28;20873;-75
2021/07/29 08:44:48;;;;;;;6.47;3.40;;;20.60;95.20;;;;;;5053231;28;20837;-75
2021/07/29 08:47:34;;;;;;;6.20;3.20;;;20.70;94.50;;;;;;5059881;22;20580;-73
2021/07/29 08:50:19;;;;;;;7.40;3.77;;;20.90;94.70;;;;;;5033507;28;20966;-73
2021/07/29 08:53:07;;;;;;;12.33;3.67;;;20.90;95.50;;;;;;5033168;28;20423;-73
2021/07/29 08:55:54;;;;;;;6.07;4.10;;;20.80;93.10;;;;;;5033114;28;20852;-73
2021/07/29 08:58:39;;;;;;;6.53;3.63;;;20.60;93.50;;;;;;5012070;28;20449;-73
2021/07/29 09:01:40;;;;;;;4.80;2.97;;;20.50;95.00;;;;;;5009626;28;20425;-73
2021/07/29 09:04:25;;;;;;;4.77;3.60;;;20.40;94.60;;;;;;5009612;28;20466;-73
2021/07/29 09:07:11;;;;;;;7.57;2.93;;;20.20;94.10;;;;;;5002643;28;20560;-73
2021/07/29 09:09:58;;;;;;;4.90;3.60;;;20.30;95.00;;;;;;4996929;28;20453;-74
2021/07/29 09:12:43;;;;;;;7.03;3.20;;;20.20;97.60;;;;;;5032267;28;20503;-73
2021/07/29 09:15:29;;;;;;;4.67;3.00;;;20.20;94.60;;;;;;5032616;28;20916;-73
2021/07/29 09:18:17;;;;;;;5.37;3.37;;;20.30;96.10;;;;;;5015598;28;20451;-73
2021/07/29 09:21:12;;;;;;;4.50;3.37;;;20.50;95.40;;;;;;5013042;28;20438;-73
2021/07/29 09:24:05;;;;;;;7.70;4.33;;;20.50;95.30;;;;;;5012670;28;20575;-72
2021/07/29 09:26:59;;;;;;;7.80;3.67;;;20.60;96.40;;;;;;5012494;28;21070;-73
2021/07/29 09:29:44;;;;;;;5.63;3.20;;;20.70;93.70;;;;;;5001157;28;20447;-73
2021/07/29 09:32:30;;;;;;;7.40;3.77;;;20.80;92.80;;;;;;4993232;28;20522;-73
2021/07/29 09:35:31;;;;;;;3.70;2.90;;;20.80;93.00;;;;;;4992558;28;20442;-73
2021/07/29 09:38:22;;;;;;;6.63;3.43;;;20.80;89.60;;;;;;4992933;28;20441;-73
2021/07/29 09:41:08;;;;;;;5.47;2.70;;;20.90;91.60;;;;;;5022012;28;20509;-73
2021/07/29 09:43:55;;;;;;;6.00;3.20;;;21.10;82.10;;;;;;4997970;28;20805;-73
2021/07/29 09:46:41;;;;;;;3.97;2.90;;;21.20;79.20;;;;;;5011819;28;21000;-73
2021/07/29 09:49:26;;;;;;;4.20;2.60;;;21.20;76.60;;;;;;5008464;28;20802;-73
2021/07/29 09:52:12;;;;;;;5.40;3.40;;;21.00;73.50;;;;;;4993622;28;20413;-73
2021/07/29 09:54:59;;;;;;;4.53;2.83;;;21.00;70.90;;;;;;4992338;28;20396;-73
2021/07/29 09:57:45;;;;;;;6.83;3.63;;;21.20;71.30;;;;;;4992653;28;21073;-73
2021/07/29 10:00:35;;;;;;;5.00;3.20;;;21.30;66.00;;;;;;4992295;28;20443;-73
2021/07/29 10:03:23;;;;;;;5.47;3.27;;;21.30;62.00;;;;;;4992373;28;20485;-73
2021/07/29 10:06:15;;;;;;;7.73;3.30;;;21.20;62.90;;;;;;4992147;28;20401;-73
2021/07/29 10:09:06;;;;;;;4.63;3.00;;;21.10;61.30;;;;;;4992726;28;20413;-72
2021/07/29 10:11:58;;;;;;;5.97;3.77;;;21.10;65.00;;;;;;5017281;28;20442;-71
2021/07/29 10:14:51;;;;;;;4.93;3.17;;;20.90;63.60;;;;;;4995306;28;20448;-71
2021/07/29 10:18:01;;;;;;;4.77;3.13;;;20.90;62.70;;;;;;4992401;28;20466;-71
2021/07/29 10:20:47;;;;;;;4.13;2.70;;;21.00;64.60;;;;;;4992387;28;20514;-71
2021/07/29 10:23:33;;;;;;;4.40;2.80;;;21.00;60.20;;;;;;4992189;28;20477;-71
2021/07/29 10:26:19;;;;;;;4.17;2.90;;;20.90;60.60;;;;;;4991762;28;20570;-71
2021/07/29 10:29:24;;;;;;;4.97;2.90;;;20.80;60.20;;;;;;4997097;28;20884;-72
2021/07/29 10:32:13;;;;;;;5.70;2.80;;;20.80;56.10;;;;;;5011707;28;20516;-71
2021/07/29 10:35:35;;;;;;;8.63;2.93;;;20.90;58.80;;;;;;5011072;28;20422;-71
2021/07/29 10:38:44;;;;;;;3.77;2.80;;;21.20;56.00;;;;;;5011612;28;20438;-72
2021/07/29 10:41:51;;;;;;;7.00;3.20;;;21.20;54.60;;;;;;5026996;28;20406;-71
2021/07/29 10:44:58;;;;;;;3.63;2.63;;;21.20;57.60;;;;;;5007099;28;20442;-71
2021/07/29 10:47:45;;;;;;;3.47;2.50;;;21.00;54.70;;;;;;5011341;28;20457;-71
2021/07/29 10:50:32;;;;;;;4.47;2.73;;;20.90;58.50;;;;;;5011807;28;20469;-71
2021/07/29 10:53:21;;;;;;;3.00;2.23;;;20.80;57.20;;;;;;5009899;28;20449;-71
2021/07/29 10:56:08;;;;;;;3.70;2.23;;;21.00;56.30;;;;;;4991457;28;20385;-72
2021/07/29 10:58:56;;;;;;;3.67;2.30;;;21.40;58.40;;;;;;4997863;28;20414;-71
2021/07/29 11:01:48;;;;;;;4.80;2.50;;;21.80;59.00;;;;;;5011366;28;20388;-71
2021/07/29 11:04:52;;;;;;;5.23;2.60;;;22.20;55.70;;;;;;5011118;28;20426;-72
2021/07/29 11:07:43;;;;;;;3.67;2.60;;;22.40;53.10;;;;;;5009851;28;20411;-73
2021/07/29 11:10:29;;;;;;;4.13;2.60;;;22.30;51.00;;;;;;5014573;28;20459;-74
2021/07/29 11:13:16;;;;;;;3.63;2.43;;;22.20;50.00;;;;;;5030792;28;20416;-73
2021/07/29 11:16:02;;;;;;;4.80;2.83;;;22.20;51.40;;;;;;5016876;28;20537;-73
2021/07/29 11:18:59;;;;;;;8.20;2.67;;;22.10;52.60;;;;;;4992310;28;20517;-73
2021/07/29 11:21:45;;;;;;;4.17;2.77;;;22.40;55.90;;;;;;4993482;28;20463;-73
2021/07/29 11:24:32;;;;;;;4.97;2.60;;;22.70;51.40;;;;;;5006333;28;20938;-74
2021/07/29 11:27:29;;;;;;;7.03;2.60;;;22.90;52.30;;;;;;5015298;28;20439;-74
2021/07/29 11:30:15;;;;;;;7.80;2.50;;;23.20;52.60;;;;;;5014863;28;20406;-73
2021/07/29 11:33:01;;;;;;;4.57;2.67;;;23.50;53.80;;;;;;5013474;28;20434;-73
2021/07/29 11:35:46;;;;;;;5.30;2.80;;;23.50;48.20;;;;;;4994820;28;20422;-73
2021/07/29 11:38:32;;;;;;;2.97;2.47;;;23.40;50.00;;;;;;4995360;28;20444;-73
2021/07/29 11:41:19;;;;;;;4.40;2.47;;;23.20;46.10;;;;;;4996368;28;20466;-73
2021/07/29 11:44:05;;;;;;;2.57;1.93;;;22.80;47.40;;;;;;4995276;28;20820;-73
2021/07/29 11:46:57;;;;;;;4.83;2.17;;;22.90;48.60;;;;;;4994486;28;20470;-73
2021/07/29 11:49:47;;;;;;;3.87;2.40;;;23.10;50.10;;;;;;4995070;28;20431;-73
2021/07/29 11:52:33;;;;;;;4.63;2.20;;;23.30;48.10;;;;;;4994472;28;20819;-73
2021/07/29 11:55:20;;;;;;;4.30;2.33;;;23.30;46.40;;;;;;4994783;28;20424;-73
2021/07/29 11:58:10;;;;;;;3.07;2.00;;;23.10;47.90;;;;;;4994523;28;20810;-73
2021/07/29 12:00:56;;;;;;;3.00;2.17;;;23.00;49.00;;;;;;4994932;28;20481;-74
2021/07/29 12:03:46;;;;;;;8.07;2.47;;;23.10;50.60;;;;;;5005169;28;20541;-73
2021/07/29 12:06:32;;;;;;;4.70;2.40;;;23.10;49.20;;;;;;5013964;28;20412;-73
2021/07/29 12:09:18;;;;;;;5.70;2.80;;;22.90;47.10;;;;;;5007413;28;20432;-73
2021/07/29 12:12:04;;;;;;;2.83;2.17;;;22.80;47.80;;;;;;5026834;28;20797;-73
2021/07/29 12:14:51;;;;;;;4.17;2.30;;;22.60;47.00;;;;;;5007301;28;20956;-73
2021/07/29 12:17:38;;;;;;;3.67;2.53;;;22.70;49.20;;;;;;5013128;28;20476;-73
2021/07/29 12:20:25;;;;;;;3.87;2.40;;;22.70;49.40;;;;;;5022356;28;20445;-73
2021/07/29 12:23:12;;;;;;;3.63;2.50;;;22.80;49.60;;;;;;5005110;28;20806;-73
2021/07/29 12:26:11;;;;;;;3.33;2.37;;;23.20;48.90;;;;;;5011470;28;20475;-73
2021/07/29 12:28:57;;;;;;;7.23;2.40;;;23.60;48.50;;;;;;5029183;28;20935;-73
2021/07/29 12:31:47;;;;;;;3.77;2.00;;;23.70;46.00;;;;;;5011691;28;20945;-73
2021/07/29 12:34:35;;;;;;;3.37;2.20;;;23.50;47.20;;;;;;5001404;28;20452;-73
2021/07/29 12:37:31;;;;;;;5.10;2.83;;;23.10;46.20;;;;;;5033013;28;20449;-73
2021/07/29 12:40:25;;;;;;;5.50;2.27;;;23.00;48.50;;;;;;5013139;28;20953;-73
2021/07/29 12:43:22;;;;;;;5.30;2.60;;;22.90;49.90;;;;;;5024625;28;20523;-73
2021/07/29 12:46:08;;;;;;;6.03;2.23;;;22.80;50.60;;;;;;5025792;28;21194;-73
2021/07/29 12:48:59;;;;;;;8.80;2.57;;;22.70;49.40;;;;;;5030075;28;20557;-73
2021/07/29 12:51:45;;;;;;;3.97;2.50;;;22.60;51.50;;;;;;5029588;28;20458;-73
2021/07/29 12:54:58;;;;;;;4.10;2.17;;;22.50;53.40;;;;;;5019028;28;20452;-73
2021/07/29 12:57:51;;;;;;;4.27;2.53;;;22.50;53.60;;;;;;5023430;28;20529;-73
2021/07/29 13:00:38;;;;;;;3.10;2.30;;;22.50;52.70;;;;;;5016303;28;21047;-73
2021/07/29 13:03:29;;;;;;;4.40;2.50;;;22.70;51.30;;;;;;5029400;28;20918;-73
2021/07/29 13:06:16;;;;;;;8.30;2.40;;;23.10;52.20;;;;;;5027787;28;20509;-73
2021/07/29 13:09:01;;;;;;;5.73;2.50;;;23.50;55.10;;;;;;5001421;28;20424;-74
2021/07/29 13:11:52;;;;;;;4.20;2.60;;;23.50;48.20;;;;;;5004359;28;20832;-73
2021/07/29 13:14:38;;;;;;;4.90;2.10;;;23.10;48.20;;;;;;5030057;28;20915;-74
2021/07/29 13:17:24;;;;;;;3.47;2.20;;;22.80;48.80;;;;;;5032883;28;20557;-73
2021/07/29 13:20:11;;;;;;;3.10;2.40;;;22.80;50.70;;;;;;5015247;28;20456;-73
2021/07/29 13:22:58;;;;;;;3.90;2.47;;;22.90;52.10;;;;;;5019458;28;20396;-73
2021/07/29 13:25:45;;;;;;;6.27;2.50;;;23.10;48.10;;;;;;5008463;28;20452;-73
2021/07/29 13:28:31;;;;;;;6.47;2.63;;;23.50;48.70;;;;;;5023668;28;20467;-73
2021/07/29 13:31:17;;;;;;;3.30;2.47;;;24.10;50.90;;;;;;5019844;28;20482;-74
2021/07/29 13:34:02;;;;;;;3.90;2.27;;;24.30;46.20;;;;;;5016991;28;20515;-73
2021/07/29 13:36:48;;;;;;;3.90;2.00;;;24.40;46.40;;;;;;5012159;28;20445;-73
2021/07/29 13:39:35;;;;;;;2.70;1.93;;;24.70;45.10;;;;;;5003055;28;20416;-74
2021/07/29 13:42:21;;;;;;;4.87;2.70;;;25.20;47.20;;;;;;5015668;28;20936;-74
2021/07/29 13:45:19;;;;;;;3.60;2.10;;;25.50;46.80;;;;;;5031113;28;20416;-73
2021/07/29 13:48:05;;;;;;;5.20;2.50;;;25.60;45.40;;;;;;5013988;28;20533;-73
2021/07/29 13:50:51;;;;;;;3.60;1.90;;;24.70;43.30;;;;;;5015920;28;20807;-73
2021/07/29 13:53:36;;;;;;;4.17;2.13;;;24.40;44.30;;;;;;5019946;28;20433;-73
2021/07/29 13:56:23;;;;;;;3.60;2.50;;;24.10;43.90;;;;;;4994983;28;20633;-73
2021/07/29 13:59:09;;;;;;;4.37;2.57;;;23.70;46.20;;;;;;5021280;28;20428;-73
2021/07/29 14:01:54;;;;;;;4.83;2.23;;;23.70;47.40;;;;;;5015144;28;20581;-74
2021/07/29 14:04:40;;;;;;;4.97;2.57;;;23.50;47.00;;;;;;5017209;28;20473;-73
2021/07/29 14:07:26;;;;;;;3.30;2.17;;;23.40;46.60;;;;;;5029185;28;20449;-74
2021/07/29 14:10:13;;;;;;;4.40;2.07;;;23.10;47.10;;;;;;5027764;28;20855;-74
2021/07/29 14:13:00;;;;;;;5.00;2.50;;;23.20;49.60;;;;;;5018963;28;20506;-73
2021/07/29 14:15:46;;;;;;;4.27;2.00;;;23.20;49.70;;;;;;5031669;28;20421;-73
2021/07/29 14:18:32;;;;;;;3.00;2.00;;;23.40;47.50;;;;;;5031807;28;20906;-73
2021/07/29 14:21:27;;;;;;;3.73;2.30;;;23.80;49.70;;;;;;5031868;28;20417;-74
2021/07/29 14:24:12;;;;;;;10.90;2.80;;;24.20;46.70;;;;;;5031579;28;20480;-74
2021/07/29 14:26:57;;;;;;;3.30;2.07;;;24.20;46.90;;;;;;5031692;28;20782;-73
2021/07/29 14:29:45;;;;;;;4.50;2.40;;;24.20;46.20;;;;;;5031631;28;20544;-74
2021/07/29 14:32:30;;;;;;;3.33;2.17;;;24.20;45.80;;;;;;5031764;28;20490;-73
2021/07/29 14:35:16;;;;;;;3.23;2.17;;;24.20;44.60;;;;;;5030993;28;20970;-74